KHPT/HPT METAR and TAF weather

Enter ICAO airport designator
Station Type Date Time Source
KHPT METAR 2019/08/25 17:55 UTC NOAA

KHPT 251755Z AUTO 14009KT 10SM BKN050 22/16 A2999 RMK AO2


Station Type Date Time Source
KHPT Decoded METAR 2019/08/25 17:55 UTC NOAA

Station name not available
Aug 25, 2019 - 01:55 PM EDT / 2019.08.25 1755 UTC
Wind: from the SE (140 degrees) at 10 MPH (9 KT):0
Visibility: 10 mile(s):0
Sky conditions: mostly cloudy
Temperature: 71 F (22 C)
Dew Point: 60 F (16 C)
Relative Humidity: 68%
Pressure (altimeter): 29.99 in. Hg (1015 hPa)
ob: KHPT 251755Z AUTO 14009KT 10SM BKN050 22/16 A2999 RMK AO2
cycle: 18

Station Type Date Time Source
KHPT TAF UTC NOAA

Error!

Example: see airport list